Main page
METAR-TAF:

METAR-TAF

Airports :

Puerto Cabezas Airport

Puerto Cabezas, Nicaragua

latitude: 14-03N, longitude: 083-22W, elevation: 20 m

Current weather observation

The report was made 1 hour and 18 minutes ago, at 12:00 UTC
Wind 4 kt from the East
Temperature 27°C
Humidity 94%
Pressure 1010 hPa
Visibility: 7000 m
Broken clouds at a height of 1600 ft
haze

METAR: MNPC 051200Z 09004KT 7000 BKN016 27/26 Q1010 HZ

Time: 07:18 (13:18 UTC)

Forecast

The report was made 15 hours and 48 minutes ago, at 21:30 UTC
Forecast valid from 05 at 00 UTC to 05 at 24 UTC
Wind 4 kt from the East
Visibility: 7000 m
Scattered clouds at a height of 1600 ft
haze
From 05 at 0200 UTC
Visibility: 8000 m
Scattered clouds at a height of 1800 ft
Becoming
from 05 at 12 UTC to 05 at 18 UTC
Wind 12 kt from the East/Northeast

TAF: MNPC 042130Z 0500/0524 09004KT 7000 HZ SCT016 FM050200 8000 SCT018 BECMG 0512/0518 07012KT

Weather observations and forecasts of more than 4000 airports (METAR and TAF reports).

The available stations are represented by yellow and red dots on the map.

Hover mouse over dot to see the name of the station.

Then click to see weather observations and forecasts.

To change the map : click on the green buttons with a black cross to zoom in, on the green button with a dash to zoom out, or on the green arrows for adjacent maps.


METAR-TAF: